createdAt,value
2017-09-09T00:01:00.899Z,5.30
2017-09-09T00:03:28.452Z,5.85
2017-09-09T00:05:56.007Z,5.90
2017-09-09T00:08:23.586Z,5.18
2017-09-09T00:10:51.145Z,5.67
2017-09-09T00:13:18.725Z,4.90
2017-09-09T00:15:47.051Z,4.70
2017-09-09T00:18:14.635Z,4.25
2017-09-09T00:20:42.206Z,5.05
2017-09-09T00:23:09.785Z,5.03
2017-09-09T00:25:38.104Z,4.70
2017-09-09T00:28:05.986Z,4.82
2017-09-09T00:30:33.570Z,4.40
2017-09-09T00:33:01.128Z,4.57
2017-09-09T00:35:28.704Z,4.57
2017-09-09T00:37:57.045Z,5.30
2017-09-09T00:40:24.615Z,4.37
2017-09-09T00:42:52.206Z,4.40
2017-09-09T00:45:20.554Z,4.50
2017-09-09T00:47:48.117Z,4.82
2017-09-09T00:50:15.975Z,4.60
2017-09-09T00:52:43.544Z,5.20
2017-09-09T00:55:11.120Z,5.33
2017-09-09T00:57:39.484Z,5.03
2017-09-09T01:00:07.828Z,4.97
2017-09-09T01:02:35.406Z,4.55
2017-09-09T01:05:03.240Z,4.72
2017-09-09T01:07:30.802Z,4.62
2017-09-09T01:09:58.355Z,4.77
2017-09-09T01:12:25.931Z,5.30
2017-09-09T01:14:53.501Z,4.60
2017-09-09T01:17:21.080Z,4.22
2017-09-09T01:19:48.653Z,4.47
2017-09-09T01:22:16.991Z,5.00
2017-09-09T01:24:44.596Z,4.70
2017-09-09T01:27:12.169Z,5.30
2017-09-09T01:29:39.748Z,4.28
2017-09-09T01:32:07.298Z,4.85
2017-09-09T01:34:34.850Z,4.93
2017-09-09T01:37:02.421Z,4.72
2017-09-09T01:39:29.980Z,4.55
2017-09-09T01:41:57.560Z,4.80
2017-09-09T01:44:25.125Z,5.07
2017-09-09T01:46:52.740Z,4.43
2017-09-09T01:49:20.316Z,4.78
2017-09-09T01:51:47.910Z,4.55
2017-09-09T01:54:15.466Z,3.72
2017-09-09T01:56:43.320Z,3.87
2017-09-09T01:59:10.883Z,4.28
2017-09-09T02:01:38.446Z,4.80
2017-09-09T02:04:06.022Z,4.93
2017-09-09T02:06:33.592Z,4.77
2017-09-09T02:09:01.951Z,4.75
2017-09-09T02:11:29.536Z,5.03
2017-09-09T02:13:57.877Z,4.28
2017-09-09T02:16:25.441Z,4.87
2017-09-09T02:18:53.011Z,4.57
2017-09-09T02:21:20.578Z,4.68
2017-09-09T02:23:48.915Z,4.87
2017-09-09T02:26:16.479Z,4.57
2017-09-09T02:28:44.039Z,4.60
2017-09-09T02:31:11.617Z,5.30
2017-09-09T02:33:39.175Z,5.28
2017-09-09T02:36:06.777Z,6.37
2017-09-09T02:38:34.343Z,5.72
2017-09-09T02:41:01.918Z,5.50
2017-09-09T02:43:29.479Z,5.75
2017-09-09T02:45:57.058Z,5.13
2017-09-09T02:48:25.377Z,4.97
2017-09-09T02:50:53.706Z,4.97
2017-09-09T02:53:21.314Z,5.12
2017-09-09T02:55:48.915Z,5.20
2017-09-09T02:58:16.492Z,5.10
2017-09-09T03:00:44.065Z,4.50
2017-09-09T03:03:11.669Z,5.40
2017-09-09T03:05:39.233Z,6.00
2017-09-09T03:08:07.064Z,4.68
2017-09-09T03:10:34.630Z,5.30
2017-09-09T03:13:02.971Z,5.60
2017-09-09T03:15:30.552Z,5.53
2017-09-09T03:17:58.972Z,5.18
2017-09-09T03:20:26.535Z,4.97
2017-09-09T03:22:54.082Z,4.97
2017-09-09T03:25:21.656Z,5.30
2017-09-09T03:27:49.232Z,5.72
2017-09-09T03:30:17.102Z,4.72
2017-09-09T03:32:44.667Z,4.70
2017-09-09T03:35:12.234Z,5.00
2017-09-09T03:37:39.813Z,5.12
2017-09-09T03:40:07.383Z,5.10
2017-09-09T03:42:35.718Z,4.75
2017-09-09T03:45:03.284Z,4.47
2017-09-09T03:47:30.855Z,4.60
2017-09-09T03:49:58.427Z,4.57
2017-09-09T03:52:26.029Z,5.05
2017-09-09T03:54:53.591Z,4.70
2017-09-09T03:57:21.162Z,5.12
2017-09-09T03:59:48.724Z,4.62
2017-09-09T04:02:16.289Z,4.30
2017-09-09T04:04:43.883Z,4.10
2017-09-09T04:07:12.205Z,4.35
2017-09-09T04:09:39.781Z,4.75
2017-09-09T04:12:07.340Z,4.40
2017-09-09T04:14:34.935Z,4.72
2017-09-09T04:17:03.261Z,4.33
2017-09-09T04:19:30.822Z,4.05
2017-09-09T04:21:58.404Z,4.47
2017-09-09T04:24:25.962Z,4.87
2017-09-09T04:26:53.530Z,4.20
2017-09-09T04:29:21.100Z,4.70
2017-09-09T04:31:48.680Z,4.83
2017-09-09T04:34:16.249Z,4.45
2017-09-09T04:36:43.835Z,4.13
2017-09-09T04:39:11.404Z,4.22
2017-09-09T04:41:38.974Z,4.30
2017-09-09T04:44:06.533Z,4.85
2017-09-09T04:46:34.369Z,4.10
2017-09-09T04:49:01.913Z,5.18
2017-09-09T04:51:29.477Z,4.17
2017-09-09T04:53:57.061Z,4.30
2017-09-09T04:56:24.619Z,4.57
2017-09-09T04:58:52.191Z,5.15
2017-09-09T05:01:19.742Z,4.60
2017-09-09T05:03:47.318Z,4.35
2017-09-09T05:06:14.880Z,4.80
2017-09-09T05:08:42.453Z,5.00
2017-09-09T05:11:10.801Z,4.62
2017-09-09T05:13:38.366Z,4.87
2017-09-09T05:16:05.955Z,3.95
2017-09-09T05:18:34.273Z,4.30
2017-09-09T05:21:01.881Z,4.03
2017-09-09T05:23:30.202Z,5.10
2017-09-09T05:25:57.780Z,4.63
2017-09-09T05:28:25.357Z,4.80
2017-09-09T05:30:53.216Z,4.00
2017-09-09T05:33:20.777Z,5.03
2017-09-09T05:35:48.339Z,4.83
2017-09-09T05:38:15.921Z,5.45
2017-09-09T05:40:44.251Z,4.47
2017-09-09T05:43:11.815Z,4.15
2017-09-09T05:45:39.377Z,4.57
2017-09-09T05:48:06.948Z,4.70
2017-09-09T05:50:34.513Z,4.97
2017-09-09T05:53:02.074Z,4.82
2017-09-09T05:55:29.639Z,5.13
2017-09-09T05:57:57.207Z,4.80
2017-09-09T06:00:25.545Z,5.03
2017-09-09T06:02:53.121Z,5.12
2017-09-09T06:05:20.687Z,4.53
2017-09-09T06:07:48.255Z,5.30
2017-09-09T06:10:16.600Z,5.20
2017-09-09T06:12:44.181Z,5.95
2017-09-09T06:15:11.755Z,5.37
2017-09-09T06:17:40.070Z,5.82
2017-09-09T06:20:07.635Z,5.43
2017-09-09T06:22:35.199Z,5.65
2017-09-09T06:25:03.074Z,5.60
2017-09-09T06:27:30.630Z,5.95
2017-09-09T06:29:58.194Z,5.25
2017-09-09T06:32:25.769Z,5.50
2017-09-09T06:34:53.339Z,5.55
2017-09-09T06:37:20.938Z,6.57
2017-09-09T06:39:48.525Z,5.97
2017-09-09T06:42:16.095Z,5.75
2017-09-09T06:44:43.662Z,5.57
2017-09-09T06:47:11.238Z,5.72
2017-09-09T06:49:39.585Z,5.80
2017-09-09T06:52:07.146Z,6.20
2017-09-09T06:54:34.715Z,5.40
2017-09-09T06:57:02.280Z,5.83
2017-09-09T06:59:29.871Z,6.03
2017-09-09T07:01:58.221Z,6.57
2017-09-09T07:04:25.808Z,6.07
2017-09-09T07:06:54.163Z,5.90
2017-09-09T07:09:22.514Z,6.20
2017-09-09T07:11:50.094Z,5.90
2017-09-09T07:14:17.663Z,5.60
2017-09-09T07:16:45.995Z,6.43
2017-09-09T07:19:13.562Z,5.45
2017-09-09T07:21:41.159Z,5.70
2017-09-09T07:24:09.486Z,5.65
2017-09-09T07:26:37.058Z,5.07
2017-09-09T07:29:04.626Z,6.40
2017-09-09T07:31:32.193Z,5.70
2017-09-09T07:33:59.791Z,6.18
2017-09-09T07:36:27.353Z,5.40
2017-09-09T07:38:54.913Z,6.00
2017-09-09T07:41:22.489Z,5.67
2017-09-09T07:43:50.068Z,6.37
2017-09-09T07:46:17.634Z,6.70
2017-09-09T07:48:45.214Z,6.05
2017-09-09T07:51:12.773Z,6.43
2017-09-09T07:53:41.131Z,6.20
2017-09-09T07:56:08.700Z,6.40
2017-09-09T07:58:36.282Z,6.17
2017-09-09T08:01:04.620Z,6.40
2017-09-09T08:03:32.207Z,6.15
2017-09-09T08:05:59.778Z,5.90
2017-09-09T08:08:28.165Z,6.60
2017-09-09T08:10:56.494Z,6.47
2017-09-09T08:13:24.559Z,6.00
2017-09-09T08:15:52.128Z,5.77
2017-09-09T08:18:19.690Z,5.80
2017-09-09T08:20:47.269Z,5.30
2017-09-09T08:23:14.887Z,5.37
2017-09-09T08:25:42.468Z,5.40
2017-09-09T08:28:10.033Z,6.13
2017-09-09T08:30:37.610Z,5.27
2017-09-09T08:33:05.940Z,5.80
2017-09-09T08:35:33.785Z,5.70
2017-09-09T08:38:01.344Z,5.80
2017-09-09T08:40:28.912Z,5.60
2017-09-09T08:42:56.510Z,6.33
2017-09-09T08:45:24.090Z,5.70
2017-09-09T08:47:52.423Z,5.87
2017-09-09T08:50:20.337Z,5.00
2017-09-09T08:52:47.906Z,5.93
2017-09-09T08:55:16.248Z,6.23
2017-09-09T08:57:44.094Z,5.57
2017-09-09T09:00:11.658Z,5.80
2017-09-09T09:02:39.224Z,5.57
2017-09-09T09:05:06.810Z,5.23
2017-09-09T09:07:35.149Z,5.63
2017-09-09T09:10:02.726Z,4.87
2017-09-09T09:12:30.300Z,5.60
2017-09-09T09:14:57.895Z,5.77
2017-09-09T09:17:25.481Z,5.73
2017-09-09T09:19:53.330Z,6.67
2017-09-09T09:22:20.914Z,6.33
2017-09-09T09:24:48.474Z,6.03
2017-09-09T09:27:16.068Z,5.93
2017-09-09T09:29:44.404Z,5.60
2017-09-09T09:32:11.972Z,5.20
2017-09-09T09:34:39.525Z,5.03
2017-09-09T09:37:07.102Z,4.63
2017-09-09T09:39:34.668Z,5.37
2017-09-09T09:42:03.020Z,6.10
2017-09-09T09:44:30.586Z,4.60
2017-09-09T09:46:58.159Z,4.93
2017-09-09T09:49:25.722Z,6.07
2017-09-09T09:51:53.297Z,5.50
2017-09-09T09:54:21.649Z,4.60
2017-09-09T09:56:49.214Z,5.40
2017-09-09T09:59:16.794Z,5.07
2017-09-09T10:01:45.140Z,4.90
2017-09-09T10:04:13.476Z,4.60
2017-09-09T10:06:41.047Z,4.20
2017-09-09T10:09:08.640Z,4.53
2017-09-09T10:11:36.206Z,4.93
2017-09-09T10:14:03.785Z,4.93
2017-09-09T10:16:32.102Z,4.40
2017-09-09T10:18:59.684Z,4.07
2017-09-09T10:21:27.292Z,5.07
2017-09-09T10:23:59.303Z,4.70
2017-09-09T10:26:26.890Z,4.27
2017-09-09T10:28:54.446Z,4.53
2017-09-09T10:31:22.017Z,4.90
2017-09-09T10:33:50.344Z,3.90
2017-09-09T10:36:17.926Z,4.60
2017-09-09T10:38:45.507Z,4.10
2017-09-09T10:41:13.838Z,4.00
2017-09-09T10:43:41.414Z,4.20
2017-09-09T10:46:09.003Z,4.40
2017-09-09T10:48:37.331Z,4.27
2017-09-09T10:51:04.887Z,4.07
2017-09-09T10:53:32.541Z,4.50
2017-09-09T10:56:00.116Z,4.70
2017-09-09T10:58:28.566Z,4.43
2017-09-09T11:00:56.395Z,4.30
2017-09-09T11:03:24.867Z,5.07
2017-09-09T11:05:52.444Z,4.80
2017-09-09T11:08:20.006Z,4.63
2017-09-09T11:10:47.685Z,5.30
2017-09-09T11:13:15.264Z,4.17
2017-09-09T11:15:42.843Z,4.67
2017-09-09T11:18:10.452Z,4.70
2017-09-09T11:20:38.843Z,4.43
2017-09-09T11:23:06.397Z,5.07
2017-09-09T11:25:34.331Z,4.70
2017-09-09T11:28:01.892Z,5.03
2017-09-09T11:30:30.830Z,4.23
2017-09-09T11:32:58.467Z,4.53
2017-09-09T11:35:26.041Z,5.87
2017-09-09T11:37:53.610Z,5.00
2017-09-09T11:40:21.170Z,4.80
2017-09-09T11:42:49.069Z,5.90
2017-09-09T11:45:16.646Z,4.60
2017-09-09T11:47:44.256Z,5.40
2017-09-09T11:50:11.938Z,4.70
2017-09-09T11:52:39.809Z,5.70
2017-09-09T11:55:08.191Z,5.43
2017-09-09T11:57:35.754Z,5.20
2017-09-09T12:00:03.357Z,5.10
2017-09-09T12:02:30.931Z,5.40
2017-09-09T12:04:58.512Z,5.07
2017-09-09T12:07:26.066Z,5.57
2017-09-09T12:09:53.645Z,5.87
2017-09-09T12:12:21.228Z,5.60
2017-09-09T12:14:49.579Z,5.50
2017-09-09T12:17:17.225Z,5.50
2017-09-09T12:19:44.798Z,5.37
2017-09-09T12:22:12.361Z,5.70
2017-09-09T12:24:39.949Z,5.63
2017-09-09T12:27:07.596Z,6.40
2017-09-09T12:29:35.186Z,5.70
2017-09-09T12:32:02.825Z,5.57
2017-09-09T12:34:30.527Z,4.60
2017-09-09T12:36:58.190Z,4.23
2017-09-09T12:39:25.829Z,4.13
2017-09-09T12:41:53.441Z,4.63
2017-09-09T12:44:21.054Z,3.77
2017-09-09T12:46:48.688Z,3.57
2017-09-09T12:49:17.078Z,4.13
2017-09-09T12:51:45.013Z,4.27
2017-09-09T12:54:12.622Z,4.37
2017-09-09T12:56:40.219Z,3.60
2017-09-09T12:59:07.864Z,4.47
2017-09-09T13:01:36.323Z,4.07
2017-09-09T13:04:03.935Z,4.50
2017-09-09T13:06:31.511Z,4.07
2017-09-09T13:08:59.448Z,3.90
2017-09-09T13:11:27.023Z,4.03
2017-09-09T13:13:54.603Z,4.20
2017-09-09T13:16:22.968Z,4.13
2017-09-09T13:18:51.319Z,4.45
2017-09-09T13:21:18.889Z,5.40
2017-09-09T13:23:46.519Z,4.75
2017-09-09T13:26:14.106Z,4.63
2017-09-09T13:28:41.697Z,5.07
2017-09-09T13:31:10.054Z,4.97
2017-09-09T13:33:37.659Z,4.65
2017-09-09T13:36:05.257Z,4.40
2017-09-09T13:38:32.818Z,4.93
2017-09-09T13:41:00.415Z,4.50
2017-09-09T13:43:28.777Z,4.75
2017-09-09T13:45:57.126Z,5.10
2017-09-09T13:48:24.734Z,4.28
2017-09-09T13:50:52.303Z,4.70
2017-09-09T13:53:20.160Z,4.40
2017-09-09T13:55:47.735Z,5.17
2017-09-09T13:58:15.330Z,5.07
2017-09-09T14:00:42.928Z,4.40
2017-09-09T14:03:10.529Z,5.00
2017-09-09T14:05:38.127Z,5.47
2017-09-09T14:08:06.482Z,5.28
2017-09-09T14:10:34.066Z,5.33
2017-09-09T14:13:02.469Z,5.22
2017-09-09T14:15:30.829Z,4.27
2017-09-09T14:17:59.222Z,4.35
2017-09-09T14:20:27.983Z,4.35
2017-09-09T14:22:55.561Z,4.25
2017-09-09T14:25:23.142Z,4.70
2017-09-09T14:27:50.743Z,3.85
2017-09-09T14:30:18.312Z,3.10
2017-09-09T14:32:45.905Z,2.92
2017-09-09T14:35:14.257Z,3.08
2017-09-09T14:37:41.847Z,2.72
2017-09-09T14:40:10.210Z,3.33
2017-09-09T14:42:38.551Z,3.37
2017-09-09T14:45:06.121Z,3.22
2017-09-09T14:47:33.971Z,5.32
2017-09-09T14:50:01.587Z,4.05
2017-09-09T14:52:29.145Z,3.33
2017-09-09T14:54:56.736Z,4.28
2017-09-09T14:57:24.311Z,4.00
2017-09-09T14:59:51.919Z,3.30
2017-09-09T15:02:19.474Z,3.90
2017-09-09T15:04:47.850Z,3.92
2017-09-09T15:07:15.470Z,4.50
2017-09-09T15:09:43.093Z,3.78
2017-09-09T15:12:10.702Z,3.70
2017-09-09T15:14:38.282Z,3.65
2017-09-09T15:17:06.620Z,3.67
2017-09-09T15:19:35.276Z,4.15
2017-09-09T15:22:02.838Z,3.80
2017-09-09T15:24:30.405Z,4.05
2017-09-09T15:26:57.961Z,3.63
2017-09-09T15:29:25.520Z,4.30
2017-09-09T15:31:53.121Z,4.20
2017-09-09T15:34:20.706Z,4.87
2017-09-09T15:36:48.279Z,5.77
2017-09-09T15:39:15.886Z,5.10
2017-09-09T15:41:43.467Z,5.17
2017-09-09T15:44:11.809Z,5.03
2017-09-09T15:46:39.674Z,4.73
2017-09-09T15:49:07.251Z,5.35
2017-09-09T15:51:34.810Z,5.60
2017-09-09T15:54:02.410Z,4.80
2017-09-09T15:56:30.032Z,5.65
2017-09-09T15:58:57.612Z,7.43
2017-09-09T16:01:25.201Z,6.37
2017-09-09T16:03:52.793Z,6.40
2017-09-09T16:06:20.442Z,5.00
2017-09-09T16:08:48.041Z,5.57
2017-09-09T16:11:15.656Z,4.68
2017-09-09T16:13:43.220Z,5.65
2017-09-09T16:16:10.817Z,5.43
2017-09-09T16:18:38.400Z,6.00
2017-09-09T16:21:05.988Z,6.27
2017-09-09T16:23:33.568Z,5.15
2017-09-09T16:26:01.137Z,5.55
2017-09-09T16:28:28.705Z,6.93
2017-09-09T16:30:56.286Z,7.00
2017-09-09T16:33:25.010Z,6.37
2017-09-09T16:35:52.915Z,8.20
2017-09-09T16:38:20.500Z,9.07
2017-09-09T16:40:48.850Z,8.50
2017-09-09T16:43:16.433Z,6.60
2017-09-09T16:45:43.991Z,6.60
2017-09-09T16:48:12.347Z,6.15
2017-09-09T16:50:39.920Z,6.23
2017-09-09T16:53:07.517Z,6.07
2017-09-09T16:55:35.103Z,6.30
2017-09-09T16:58:02.956Z,7.50
2017-09-09T17:00:30.518Z,6.63
2017-09-09T17:02:58.100Z,12.45
2017-09-09T17:05:25.683Z,10.23
2017-09-09T17:07:53.255Z,8.88
2017-09-09T17:10:20.864Z,8.67
2017-09-09T17:12:48.525Z,6.85
2017-09-09T17:15:16.115Z,6.75
2017-09-09T17:17:43.693Z,6.18
2017-09-09T17:20:12.333Z,6.50
2017-09-09T17:22:40.791Z,7.00
2017-09-09T17:25:08.357Z,6.25
2017-09-09T17:27:35.950Z,5.87
2017-09-09T17:30:03.572Z,6.47
2017-09-09T17:32:31.175Z,7.87
2017-09-09T17:34:58.786Z,8.30
2017-09-09T17:37:26.375Z,9.55
2017-09-09T17:39:54.701Z,11.18
2017-09-09T17:42:23.062Z,9.70
2017-09-09T17:44:51.412Z,9.70
2017-09-09T17:47:19.273Z,6.90
2017-09-09T17:49:46.842Z,6.43
2017-09-09T17:52:14.404Z,6.77
2017-09-09T17:54:41.987Z,7.28
2017-09-09T17:57:10.351Z,7.83
2017-09-09T17:59:38.721Z,7.20
2017-09-09T18:02:06.288Z,7.77
2017-09-09T18:04:33.915Z,7.18
2017-09-09T18:07:01.500Z,7.05
2017-09-09T18:09:29.086Z,6.40
2017-09-09T18:11:57.509Z,5.70
2017-09-09T18:14:25.090Z,5.35
2017-09-09T18:16:52.833Z,6.13
2017-09-09T18:19:20.800Z,4.15
2017-09-09T18:21:48.413Z,7.47
2017-09-09T18:24:15.983Z,5.05
2017-09-09T18:26:43.579Z,6.00
2017-09-09T18:29:11.165Z,5.30
2017-09-09T18:31:38.750Z,4.70
2017-09-09T18:34:07.109Z,4.57
2017-09-09T18:36:34.700Z,8.33
2017-09-09T18:39:02.261Z,8.30
2017-09-09T18:41:30.157Z,6.00
2017-09-09T18:43:57.725Z,5.53
2017-09-09T18:46:25.292Z,4.70
2017-09-09T18:48:52.887Z,5.40
2017-09-09T18:51:21.262Z,5.30
2017-09-09T18:53:48.869Z,5.60
2017-09-09T18:56:17.420Z,5.30
2017-09-09T18:58:44.999Z,4.40
2017-09-09T19:01:12.572Z,5.47
2017-09-09T19:03:40.167Z,3.65
2017-09-09T19:06:07.754Z,4.10
2017-09-09T19:08:35.656Z,4.20
2017-09-09T19:11:03.263Z,5.30
2017-09-09T19:13:31.615Z,4.50
2017-09-09T19:15:59.213Z,4.30
2017-09-09T19:18:27.585Z,6.32
2017-09-09T19:20:55.174Z,6.40
2017-09-09T19:23:23.239Z,6.60
2017-09-09T19:25:50.865Z,4.53
2017-09-09T19:28:18.444Z,4.47
2017-09-09T19:30:46.843Z,5.37
2017-09-09T19:33:14.459Z,4.32
2017-09-09T19:35:43.144Z,4.07
2017-09-09T19:38:11.480Z,4.35
2017-09-09T19:40:39.040Z,3.83
2017-09-09T19:43:06.625Z,3.83
2017-09-09T19:45:34.216Z,5.90
2017-09-09T19:48:01.822Z,5.32
2017-09-09T19:50:29.405Z,5.40
2017-09-09T19:52:57.038Z,4.75
2017-09-09T19:55:24.614Z,4.83
2017-09-09T19:57:52.210Z,6.27
2017-09-09T20:00:20.560Z,4.60
2017-09-09T20:02:48.646Z,3.35
2017-09-09T20:05:17.021Z,2.67
2017-09-09T20:07:45.349Z,3.00
2017-09-09T20:10:12.935Z,5.00
2017-09-09T20:12:40.520Z,3.15
2017-09-09T20:15:09.787Z,3.47
2017-09-09T20:17:37.389Z,4.45
2017-09-09T20:20:05.753Z,2.78
2017-09-09T20:22:33.359Z,4.80
2017-09-09T20:25:00.933Z,4.57
2017-09-09T20:27:28.504Z,3.10
2017-09-09T20:29:56.370Z,4.60
2017-09-09T20:32:23.982Z,3.50
2017-09-09T20:34:51.563Z,3.65
2017-09-09T20:37:19.149Z,3.53
2017-09-09T20:39:46.748Z,2.53
2017-09-09T20:42:15.110Z,2.90
2017-09-09T20:44:43.442Z,2.75
2017-09-09T20:47:11.018Z,2.30
2017-09-09T20:49:38.665Z,7.93
2017-09-09T20:52:06.247Z,2.80
2017-09-09T20:54:33.833Z,3.17
2017-09-09T20:57:02.178Z,2.53
2017-09-09T20:59:29.756Z,5.18
2017-09-09T21:01:57.720Z,3.57
2017-09-09T21:04:25.335Z,10.15
2017-09-09T21:06:52.919Z,4.07
2017-09-09T21:09:20.495Z,3.55
2017-09-09T21:11:48.069Z,4.15
2017-09-09T21:14:16.414Z,6.28
2017-09-09T21:16:43.985Z,2.80
2017-09-09T21:19:11.568Z,2.55
2017-09-09T21:21:39.904Z,2.87
2017-09-09T21:24:08.240Z,2.30
2017-09-09T21:26:35.814Z,4.40
2017-09-09T21:29:03.404Z,2.70
2017-09-09T21:31:31.003Z,2.87
2017-09-09T21:33:59.348Z,2.62
2017-09-09T21:36:26.944Z,2.23
2017-09-09T21:38:55.281Z,3.62
2017-09-09T21:41:22.892Z,4.47
2017-09-09T21:43:50.456Z,3.28
2017-09-09T21:46:18.031Z,6.53
2017-09-09T21:48:45.591Z,3.00
2017-09-09T21:51:13.575Z,2.80
2017-09-09T21:53:41.920Z,1.90
2017-09-09T21:56:09.494Z,4.60
2017-09-09T21:58:37.072Z,2.83
2017-09-09T22:01:04.649Z,4.20
2017-09-09T22:03:32.214Z,2.40
2017-09-09T22:05:59.769Z,4.23
2017-09-09T22:08:27.621Z,2.65
2017-09-09T22:10:55.191Z,2.20
2017-09-09T22:13:22.834Z,1.90
2017-09-09T22:15:50.433Z,2.30
2017-09-09T22:18:18.783Z,2.05
2017-09-09T22:20:46.365Z,3.28
2017-09-09T22:23:14.690Z,1.85
2017-09-09T22:25:42.253Z,1.90
2017-09-09T22:28:09.808Z,1.70
2017-09-09T22:30:37.386Z,1.60
2017-09-09T22:33:04.956Z,6.20
2017-09-09T22:35:32.795Z,2.17
2017-09-09T22:38:00.350Z,2.30
2017-09-09T22:40:27.911Z,1.55
2017-09-09T22:42:55.478Z,3.50
2017-09-09T22:45:23.039Z,2.70
2017-09-09T22:47:50.630Z,2.07
2017-09-09T22:50:18.199Z,1.90
2017-09-09T22:52:46.531Z,1.43
2017-09-09T22:55:14.114Z,1.90
2017-09-09T22:57:41.690Z,1.80
2017-09-09T23:00:09.269Z,2.30
2017-09-09T23:02:37.193Z,2.03
2017-09-09T23:05:04.760Z,1.40
2017-09-09T23:07:32.323Z,1.47
2017-09-09T23:09:59.901Z,1.50
2017-09-09T23:12:28.260Z,1.37
2017-09-09T23:14:56.618Z,1.50
2017-09-09T23:17:24.191Z,1.40
2017-09-09T23:19:52.140Z,1.10
2017-09-09T23:22:19.705Z,1.20
2017-09-09T23:24:47.275Z,1.27
2017-09-09T23:27:14.860Z,1.17
2017-09-09T23:29:42.414Z,1.02
2017-09-09T23:32:09.970Z,1.40
2017-09-09T23:34:38.297Z,1.05
2017-09-09T23:37:05.883Z,1.10
2017-09-09T23:39:33.446Z,1.10
2017-09-09T23:42:01.028Z,1.40
2017-09-09T23:44:29.357Z,0.82
2017-09-09T23:46:57.334Z,1.10
2017-09-09T23:49:24.883Z,0.93
2017-09-09T23:51:52.437Z,1.30
2017-09-09T23:54:19.997Z,0.80
2017-09-09T23:56:47.567Z,1.23
2017-09-09T23:59:15.162Z,0.95
